createdAt,value
2023-05-18T00:00:39.864Z,1025.39
2023-05-18T00:01:44.141Z,1025.40
2023-05-18T00:02:48.715Z,1025.41
2023-05-18T00:03:52.855Z,1025.41
2023-05-18T00:04:57.020Z,1025.40
2023-05-18T00:06:01.181Z,1025.40
2023-05-18T00:07:05.492Z,1025.42
2023-05-18T00:08:10.068Z,1025.45
2023-05-18T00:09:14.028Z,1025.47
2023-05-18T00:10:18.349Z,1025.47
2023-05-18T00:11:22.492Z,1025.45
2023-05-18T00:12:26.902Z,1025.45
2023-05-18T00:13:31.127Z,1025.44
2023-05-18T00:14:35.470Z,1025.45
2023-05-18T00:15:39.664Z,1025.45
2023-05-18T00:16:43.979Z,1025.46
2023-05-18T00:17:48.187Z,1025.46
2023-05-18T00:18:52.415Z,1025.47
2023-05-18T00:19:56.676Z,1025.46
2023-05-18T00:21:00.811Z,1025.44
2023-05-18T00:22:05.130Z,1025.45
2023-05-18T00:23:09.349Z,1025.44
2023-05-18T00:24:13.676Z,1025.44
2023-05-18T00:25:17.923Z,1025.45
2023-05-18T00:26:22.161Z,1025.45
2023-05-18T00:27:26.426Z,1025.46
2023-05-18T00:28:30.680Z,1025.46
2023-05-18T00:29:35.015Z,1025.48
2023-05-18T00:30:39.334Z,1025.48
2023-05-18T00:31:43.581Z,1025.49
2023-05-18T00:32:47.942Z,1025.49
2023-05-18T00:33:52.058Z,1025.48
2023-05-18T00:34:56.391Z,1025.48
2023-05-18T00:36:00.610Z,1025.49
2023-05-18T00:37:04.891Z,1025.47
2023-05-18T00:38:09.131Z,1025.46
2023-05-18T00:39:13.391Z,1025.47
2023-05-18T00:40:17.609Z,1025.46
2023-05-18T00:41:21.792Z,1025.49
2023-05-18T00:42:26.059Z,1025.52
2023-05-18T00:43:30.406Z,1025.53
2023-05-18T00:44:34.705Z,1025.53
2023-05-18T00:45:38.974Z,1025.53
2023-05-18T00:46:43.101Z,1025.53
2023-05-18T00:47:47.448Z,1025.53
2023-05-18T00:48:51.589Z,1025.55
2023-05-18T00:49:55.810Z,1025.53
2023-05-18T00:51:00.115Z,1025.52
2023-05-18T00:52:04.327Z,1025.55
2023-05-18T00:53:08.663Z,1025.53
2023-05-18T00:54:12.993Z,1025.56
2023-05-18T00:55:17.148Z,1025.53
2023-05-18T00:56:21.385Z,1025.52
2023-05-18T00:57:25.619Z,1025.52
2023-05-18T00:58:29.853Z,1025.53
2023-05-18T00:59:34.123Z,1025.53
2023-05-18T01:00:38.359Z,1025.54
2023-05-18T01:01:42.602Z,1025.57
2023-05-18T01:02:47.001Z,1025.58
2023-05-18T01:03:51.190Z,1025.60
2023-05-18T01:04:55.363Z,1025.61
2023-05-18T01:05:59.701Z,1025.60
2023-05-18T01:07:03.877Z,1025.59
2023-05-18T01:08:08.152Z,1025.59
2023-05-18T01:09:12.484Z,1025.60
2023-05-18T01:10:16.704Z,1025.60
2023-05-18T01:11:21.046Z,1025.60
2023-05-18T01:12:25.181Z,1025.64
2023-05-18T01:13:29.542Z,1025.64
2023-05-18T01:14:33.722Z,1025.65
2023-05-18T01:15:37.889Z,1025.65
2023-05-18T01:16:42.295Z,1025.67
2023-05-18T01:17:46.471Z,1025.66
2023-05-18T01:18:50.776Z,1025.66
2023-05-18T01:19:54.990Z,1025.66
2023-05-18T01:20:59.273Z,1025.66
2023-05-18T01:22:03.471Z,1025.68
2023-05-18T01:23:07.713Z,1025.70
2023-05-18T01:24:12.069Z,1025.70
2023-05-18T01:25:16.238Z,1025.71
2023-05-18T01:26:20.580Z,1025.71
2023-05-18T01:27:24.751Z,1025.72
2023-05-18T01:28:28.954Z,1025.72
2023-05-18T01:29:33.243Z,1025.70
2023-05-18T01:30:37.487Z,1025.71
2023-05-18T01:31:41.783Z,1025.72
2023-05-18T01:32:45.973Z,1025.73
2023-05-18T01:33:56.176Z,1025.73
2023-05-18T01:34:59.092Z,1025.73
2023-05-18T01:36:03.337Z,1025.72
2023-05-18T01:37:07.495Z,1025.76
2023-05-18T01:38:11.718Z,1025.74
2023-05-18T01:39:15.934Z,1025.74
2023-05-18T01:40:20.174Z,1025.74
2023-05-18T01:41:24.537Z,1025.74
2023-05-18T01:42:28.666Z,1025.74
2023-05-18T01:43:32.996Z,1025.73
2023-05-18T01:44:37.212Z,1025.73
2023-05-18T01:45:41.519Z,1025.74
2023-05-18T01:46:45.907Z,1025.78
2023-05-18T01:47:50.139Z,1025.77
2023-05-18T01:48:54.308Z,1025.79
2023-05-18T01:49:58.590Z,1025.78
2023-05-18T01:51:02.783Z,1025.79
2023-05-18T01:52:06.983Z,1025.79
2023-05-18T01:53:11.309Z,1025.79
2023-05-18T01:54:15.476Z,1025.80
2023-05-18T01:55:19.738Z,1025.80
2023-05-18T01:56:30.037Z,1025.80
2023-05-18T01:57:32.873Z,1025.81
2023-05-18T01:58:37.186Z,1025.81
2023-05-18T01:59:41.294Z,1025.79
2023-05-18T02:00:45.514Z,1025.80
2023-05-18T02:01:49.756Z,1025.85
2023-05-18T02:02:53.996Z,1025.88
2023-05-18T02:03:58.358Z,1025.88
2023-05-18T02:05:02.483Z,1025.88
2023-05-18T02:06:06.690Z,1025.88
2023-05-18T02:07:11.077Z,1025.85
2023-05-18T02:08:15.314Z,1025.84
2023-05-18T02:09:19.596Z,1025.86
2023-05-18T02:10:23.727Z,1025.86
2023-05-18T02:11:27.979Z,1025.87
2023-05-18T02:12:32.261Z,1025.88
2023-05-18T02:13:36.449Z,1025.86
2023-05-18T02:14:40.685Z,1025.87
2023-05-18T02:15:45.012Z,1025.87
2023-05-18T02:16:49.185Z,1025.87
2023-05-18T02:17:53.583Z,1025.88
2023-05-18T02:19:00.838Z,1025.89
2023-05-18T02:20:04.084Z,1025.90
2023-05-18T02:21:08.250Z,1025.91
2023-05-18T02:22:12.475Z,1025.90
2023-05-18T02:23:16.701Z,1025.91
2023-05-18T02:24:20.928Z,1025.92
2023-05-18T02:25:25.141Z,1025.93
2023-05-18T02:26:29.420Z,1025.93
2023-05-18T02:27:33.621Z,1025.92
2023-05-18T02:28:37.792Z,1025.94
2023-05-18T02:29:41.992Z,1025.94
2023-05-18T02:30:46.181Z,1025.93
2023-05-18T02:31:50.512Z,1025.94
2023-05-18T02:32:54.763Z,1025.95
2023-05-18T02:33:58.994Z,1025.97
2023-05-18T02:35:03.180Z,1025.98
2023-05-18T02:36:07.464Z,1025.99
2023-05-18T02:37:11.706Z,1026.00
2023-05-18T02:38:15.873Z,1026.01
2023-05-18T02:39:20.049Z,1026.03
2023-05-18T02:40:24.300Z,1026.06
2023-05-18T02:41:28.496Z,1026.08
2023-05-18T02:42:38.753Z,1026.10
2023-05-18T02:43:41.749Z,1026.08
2023-05-18T02:44:45.783Z,1026.09
2023-05-18T02:45:50.142Z,1026.10
2023-05-18T02:46:54.366Z,1026.10
2023-05-18T02:47:58.624Z,1026.11
2023-05-18T02:49:02.807Z,1026.09
2023-05-18T02:50:07.093Z,1026.13
2023-05-18T02:51:11.359Z,1026.11
2023-05-18T02:52:15.633Z,1026.13
2023-05-18T02:53:19.761Z,1026.14
2023-05-18T02:54:24.000Z,1026.16
2023-05-18T02:55:28.426Z,1026.18
2023-05-18T02:56:32.529Z,1026.18
2023-05-18T02:57:36.706Z,1026.20
2023-05-18T02:58:41.006Z,1026.22
2023-05-18T02:59:45.208Z,1026.21
2023-05-18T03:00:49.485Z,1026.24
2023-05-18T03:01:53.652Z,1026.26
2023-05-18T03:02:58.093Z,1026.27
2023-05-18T03:04:05.125Z,1026.27
2023-05-18T03:05:08.492Z,1026.27
2023-05-18T03:06:12.664Z,1026.26
2023-05-18T03:07:16.968Z,1026.24
2023-05-18T03:08:21.131Z,1026.22
2023-05-18T03:09:25.403Z,1026.20
2023-05-18T03:10:29.683Z,1026.17
2023-05-18T03:11:34.004Z,1026.19
2023-05-18T03:12:38.143Z,1026.19
2023-05-18T03:13:42.455Z,1026.17
2023-05-18T03:14:46.672Z,1026.17
2023-05-18T03:15:51.016Z,1026.18
2023-05-18T03:16:55.250Z,1026.18
2023-05-18T03:17:59.595Z,1026.20
2023-05-18T03:19:03.738Z,1026.19
2023-05-18T03:20:07.909Z,1026.21
2023-05-18T03:21:12.217Z,1026.25
2023-05-18T03:22:16.489Z,1026.26
2023-05-18T03:23:20.754Z,1026.25
2023-05-18T03:24:24.933Z,1026.25
2023-05-18T03:25:29.425Z,1026.27
2023-05-18T03:26:33.516Z,1026.25
2023-05-18T03:27:37.693Z,1026.22
2023-05-18T03:28:42.028Z,1026.19
2023-05-18T03:29:46.205Z,1026.21
2023-05-18T03:30:50.428Z,1026.22
2023-05-18T03:31:54.848Z,1026.25
2023-05-18T03:32:58.888Z,1026.28
2023-05-18T03:34:03.144Z,1026.29
2023-05-18T03:35:07.441Z,1026.30
2023-05-18T03:36:11.666Z,1026.29
2023-05-18T03:37:15.819Z,1026.29
2023-05-18T03:38:20.067Z,1026.30
2023-05-18T03:39:24.264Z,1026.31
2023-05-18T03:40:28.592Z,1026.31
2023-05-18T03:41:32.760Z,1026.28
2023-05-18T03:42:37.017Z,1026.28
2023-05-18T03:43:41.287Z,1026.28
2023-05-18T03:44:45.469Z,1026.27
2023-05-18T03:45:49.769Z,1026.25
2023-05-18T03:46:54.091Z,1026.24
2023-05-18T03:47:58.388Z,1026.25
2023-05-18T03:49:02.507Z,1026.26
2023-05-18T03:50:06.693Z,1026.22
2023-05-18T03:51:10.913Z,1026.21
2023-05-18T03:52:15.234Z,1026.23
2023-05-18T03:53:19.563Z,1026.22
2023-05-18T03:54:23.631Z,1026.23
2023-05-18T03:55:28.063Z,1026.24
2023-05-18T03:56:32.196Z,1026.25
2023-05-18T03:57:36.372Z,1026.26
2023-05-18T03:58:40.622Z,1026.26
2023-05-18T03:59:45.001Z,1026.27
2023-05-18T04:00:49.181Z,1026.27
2023-05-18T04:01:53.419Z,1026.26
2023-05-18T04:03:00.859Z,1026.30
2023-05-18T04:04:04.115Z,1026.29
2023-05-18T04:05:08.211Z,1026.29
2023-05-18T04:06:12.435Z,1026.32
2023-05-18T04:07:16.814Z,1026.30
2023-05-18T04:08:21.020Z,1026.31
2023-05-18T04:09:25.368Z,1026.33
2023-05-18T04:10:29.558Z,1026.31
2023-05-18T04:11:33.848Z,1026.35
2023-05-18T04:12:37.901Z,1026.36
2023-05-18T04:13:42.214Z,1026.36
2023-05-18T04:14:46.502Z,1026.39
2023-05-18T04:15:50.748Z,1026.41
2023-05-18T04:16:54.988Z,1026.44
2023-05-18T04:17:59.238Z,1026.46
2023-05-18T04:19:05.005Z,1026.44
2023-05-18T04:20:07.811Z,1026.42
2023-05-18T04:21:11.948Z,1026.43
2023-05-18T04:22:16.315Z,1026.45
2023-05-18T04:23:20.569Z,1026.45
2023-05-18T04:24:24.705Z,1026.46
2023-05-18T04:25:29.145Z,1026.48
2023-05-18T04:26:33.151Z,1026.48
2023-05-18T04:27:37.390Z,1026.54
2023-05-18T04:28:41.598Z,1026.56
2023-05-18T04:29:45.772Z,1026.57
2023-05-18T04:30:50.049Z,1026.59
2023-05-18T04:31:54.323Z,1026.58
2023-05-18T04:32:58.783Z,1026.61
2023-05-18T04:34:02.775Z,1026.62
2023-05-18T04:35:07.169Z,1026.60
2023-05-18T04:36:11.320Z,1026.61
2023-05-18T04:37:15.535Z,1026.61
2023-05-18T04:38:19.842Z,1026.61
2023-05-18T04:39:24.059Z,1026.62
2023-05-18T04:40:28.303Z,1026.62
2023-05-18T04:41:32.547Z,1026.64
2023-05-18T04:42:36.739Z,1026.65
2023-05-18T04:43:41.002Z,1026.67
2023-05-18T04:44:45.264Z,1026.68
2023-05-18T04:45:49.462Z,1026.68
2023-05-18T04:46:53.679Z,1026.68
2023-05-18T04:47:57.921Z,1026.69
2023-05-18T04:49:02.167Z,1026.72
2023-05-18T04:50:06.383Z,1026.72
2023-05-18T04:51:10.649Z,1026.74
2023-05-18T04:52:14.865Z,1026.73
2023-05-18T04:53:19.126Z,1026.73
2023-05-18T04:54:23.318Z,1026.74
2023-05-18T04:55:28.707Z,1026.73
2023-05-18T04:56:31.826Z,1026.75
2023-05-18T04:57:36.130Z,1026.74
2023-05-18T04:58:43.426Z,1026.76
2023-05-18T04:59:46.718Z,1026.77
2023-05-18T05:00:51.010Z,1026.79
2023-05-18T05:01:55.298Z,1026.80
2023-05-18T05:02:59.768Z,1026.81
2023-05-18T05:04:03.763Z,1026.87
2023-05-18T05:05:08.042Z,1026.86
2023-05-18T05:06:12.238Z,1026.84
2023-05-18T05:07:16.603Z,1026.85
2023-05-18T05:08:20.750Z,1026.87
2023-05-18T05:09:25.003Z,1026.86
2023-05-18T05:10:29.311Z,1026.89
2023-05-18T05:11:33.539Z,1026.89
2023-05-18T05:12:37.777Z,1026.90
2023-05-18T05:13:42.150Z,1026.89
2023-05-18T05:14:46.425Z,1026.89
2023-05-18T05:15:50.724Z,1026.91
2023-05-18T05:16:54.955Z,1026.94
2023-05-18T05:17:59.239Z,1026.94
2023-05-18T05:19:03.538Z,1026.94
2023-05-18T05:20:07.749Z,1026.94
2023-05-18T05:21:12.091Z,1026.92
2023-05-18T05:22:16.386Z,1026.95
2023-05-18T05:23:20.606Z,1026.93
2023-05-18T05:24:24.850Z,1026.93
2023-05-18T05:25:29.440Z,1026.92
2023-05-18T05:26:33.369Z,1026.93
2023-05-18T05:27:37.766Z,1026.95
2023-05-18T05:28:42.077Z,1026.97
2023-05-18T05:29:46.381Z,1026.98
2023-05-18T05:30:50.601Z,1026.99
2023-05-18T05:31:55.011Z,1027.00
2023-05-18T05:32:59.281Z,1027.00
2023-05-18T05:34:03.430Z,1027.01
2023-05-18T05:35:07.667Z,1027.02
2023-05-18T05:36:11.908Z,1027.02
2023-05-18T05:37:16.177Z,1027.03
2023-05-18T05:38:20.496Z,1027.05
2023-05-18T05:39:24.761Z,1027.06
2023-05-18T05:40:28.976Z,1027.06
2023-05-18T05:41:33.263Z,1027.06
2023-05-18T05:42:37.541Z,1027.07
2023-05-18T05:43:41.780Z,1027.06
2023-05-18T05:44:46.053Z,1027.08
2023-05-18T05:45:50.332Z,1027.09
2023-05-18T05:46:54.679Z,1027.07
2023-05-18T05:47:59.002Z,1027.05
2023-05-18T05:49:03.258Z,1027.03
2023-05-18T05:50:07.525Z,1027.02
2023-05-18T05:51:11.871Z,1027.03
2023-05-18T05:52:16.175Z,1027.05
2023-05-18T05:53:20.513Z,1027.04
2023-05-18T05:54:24.748Z,1027.04
2023-05-18T05:55:29.291Z,1027.05
2023-05-18T05:56:33.351Z,1027.06
2023-05-18T05:57:37.640Z,1027.05
2023-05-18T05:58:41.951Z,1027.06
2023-05-18T05:59:46.293Z,1027.05
2023-05-18T06:00:50.486Z,1027.06
2023-05-18T06:01:54.778Z,1027.07
2023-05-18T06:02:59.128Z,1027.07
2023-05-18T06:04:03.451Z,1027.09
2023-05-18T06:05:07.726Z,1027.09
2023-05-18T06:06:11.969Z,1027.07
2023-05-18T06:07:16.348Z,1027.07
2023-05-18T06:08:20.686Z,1027.09
2023-05-18T06:09:25.021Z,1027.06
2023-05-18T06:10:29.266Z,1027.05
2023-05-18T06:11:33.588Z,1027.06
2023-05-18T06:12:37.950Z,1027.06
2023-05-18T06:13:42.265Z,1027.06
2023-05-18T06:14:46.602Z,1027.07
2023-05-18T06:15:50.851Z,1027.07
2023-05-18T06:16:55.269Z,1027.07
2023-05-18T06:17:59.373Z,1027.07
2023-05-18T06:19:03.793Z,1027.08
2023-05-18T06:20:07.995Z,1027.09
2023-05-18T06:21:12.316Z,1027.07
2023-05-18T06:22:16.669Z,1027.09
2023-05-18T06:23:21.027Z,1027.09
2023-05-18T06:24:25.374Z,1027.10
2023-05-18T06:25:29.965Z,1027.11
2023-05-18T06:26:33.999Z,1027.06
2023-05-18T06:27:38.441Z,1027.06
2023-05-18T06:28:42.618Z,1027.08
2023-05-18T06:29:46.898Z,1027.06
2023-05-18T06:30:51.211Z,1027.09
2023-05-18T06:31:55.621Z,1027.07
2023-05-18T06:33:00.003Z,1027.07
2023-05-18T06:34:04.282Z,1027.08
2023-05-18T06:35:08.587Z,1027.08
2023-05-18T06:36:12.963Z,1027.10
2023-05-18T06:37:17.246Z,1027.08
2023-05-18T06:38:21.523Z,1027.06
2023-05-18T06:39:25.814Z,1027.05
2023-05-18T06:40:30.202Z,1027.04
2023-05-18T06:41:34.513Z,1027.05
2023-05-18T06:42:38.876Z,1027.08
2023-05-18T06:43:43.355Z,1027.07
2023-05-18T06:44:47.530Z,1027.09
2023-05-18T06:45:52.039Z,1027.12
2023-05-18T06:46:56.220Z,1027.10
2023-05-18T06:48:00.782Z,1027.09
2023-05-18T06:49:05.048Z,1027.08
2023-05-18T06:50:09.286Z,1027.11
2023-05-18T06:51:16.597Z,1027.14
2023-05-18T06:52:20.099Z,1027.15
2023-05-18T06:53:24.478Z,1027.18
2023-05-18T06:54:28.757Z,1027.20
2023-05-18T06:55:47.173Z,1027.19
2023-05-18T06:56:50.417Z,1027.15
2023-05-18T06:57:54.695Z,1027.19
2023-05-18T06:59:00.469Z,1027.21
2023-05-18T07:00:03.271Z,1027.23
2023-05-18T07:01:07.674Z,1027.21
2023-05-18T07:02:11.946Z,1027.23
2023-05-18T07:03:16.517Z,1027.25
2023-05-18T07:04:20.654Z,1027.28
2023-05-18T07:05:24.971Z,1027.26
2023-05-18T07:06:29.290Z,1027.24
2023-05-18T07:07:33.706Z,1027.26
2023-05-18T07:08:37.772Z,1027.28
2023-05-18T07:09:42.223Z,1027.28
2023-05-18T07:10:46.544Z,1027.28
2023-05-18T07:11:50.864Z,1027.29
2023-05-18T07:12:55.172Z,1027.29
2023-05-18T07:13:59.408Z,1027.31
2023-05-18T07:15:03.700Z,1027.31
2023-05-18T07:16:08.157Z,1027.32
2023-05-18T07:17:12.288Z,1027.30
2023-05-18T07:18:16.670Z,1027.27
2023-05-18T07:19:21.156Z,1027.26
2023-05-18T07:20:26.429Z,1027.28
2023-05-18T07:21:29.562Z,1027.29
2023-05-18T07:22:33.906Z,1027.29
2023-05-18T07:23:38.331Z,1027.30
2023-05-18T07:24:42.672Z,1027.32
2023-05-18T07:25:46.947Z,1027.30
2023-05-18T07:26:51.300Z,1027.30
2023-05-18T07:27:55.653Z,1027.33
2023-05-18T07:28:59.864Z,1027.35
2023-05-18T07:30:04.247Z,1027.37
2023-05-18T07:31:08.673Z,1027.38
2023-05-18T07:32:12.829Z,1027.39
2023-05-18T07:33:17.198Z,1027.42
2023-05-18T07:34:24.529Z,1027.43
2023-05-18T07:35:27.939Z,1027.45
2023-05-18T07:36:32.213Z,1027.47
2023-05-18T07:37:36.552Z,1027.49
2023-05-18T07:38:40.784Z,1027.51
2023-05-18T07:39:45.150Z,1027.50
2023-05-18T07:40:49.488Z,1027.50
2023-05-18T07:41:53.793Z,1027.52
2023-05-18T07:42:58.061Z,1027.53
2023-05-18T07:44:02.444Z,1027.53
2023-05-18T07:45:06.744Z,1027.52
2023-05-18T07:46:11.132Z,1027.51
2023-05-18T07:47:15.423Z,1027.49
2023-05-18T07:48:19.720Z,1027.50
2023-05-18T07:49:24.073Z,1027.52
2023-05-18T07:50:28.379Z,1027.49
2023-05-18T07:51:46.749Z,1027.49
2023-05-18T07:52:50.109Z,1027.46
2023-05-18T07:53:54.365Z,1027.45
2023-05-18T07:54:58.657Z,1027.45
2023-05-18T07:56:02.955Z,1027.42
2023-05-18T07:57:07.227Z,1027.39
2023-05-18T07:58:11.631Z,1027.38
2023-05-18T07:59:15.880Z,1027.36
2023-05-18T08:00:20.268Z,1027.34
2023-05-18T08:01:24.705Z,1027.34
2023-05-18T08:02:30.261Z,1027.32
2023-05-18T08:03:33.300Z,1027.34
2023-05-18T08:04:37.570Z,1027.34
2023-05-18T08:05:41.943Z,1027.34
2023-05-18T08:06:46.282Z,1027.35
2023-05-18T08:07:50.630Z,1027.35
2023-05-18T08:08:54.991Z,1027.33
2023-05-18T08:09:59.307Z,1027.35
2023-05-18T08:11:03.602Z,1027.36
2023-05-18T08:12:07.927Z,1027.39
2023-05-18T08:13:12.254Z,1027.37
2023-05-18T08:14:16.618Z,1027.38
2023-05-18T08:15:20.951Z,1027.38
2023-05-18T08:16:28.383Z,1027.37
2023-05-18T08:17:31.797Z,1027.36
2023-05-18T08:18:36.118Z,1027.34
2023-05-18T08:19:41.917Z,1027.33
2023-05-18T08:20:44.661Z,1027.32
2023-05-18T08:21:49.045Z,1027.34
2023-05-18T08:22:53.404Z,1027.35
2023-05-18T08:23:57.675Z,1027.38
2023-05-18T08:25:02.043Z,1027.38
2023-05-18T08:26:06.378Z,1027.37
2023-05-18T08:27:10.690Z,1027.37
2023-05-18T08:28:14.998Z,1027.40
2023-05-18T08:29:19.376Z,1027.38
2023-05-18T08:30:23.756Z,1027.36
2023-05-18T08:31:28.006Z,1027.36
2023-05-18T08:32:32.443Z,1027.39
2023-05-18T08:33:36.668Z,1027.39
2023-05-18T08:34:46.965Z,1027.40
2023-05-18T08:35:49.839Z,1027.44
2023-05-18T08:36:54.202Z,1027.42
2023-05-18T08:37:58.530Z,1027.42
2023-05-18T08:39:02.790Z,1027.43
2023-05-18T08:40:07.066Z,1027.41
2023-05-18T08:41:11.434Z,1027.44
2023-05-18T08:42:15.701Z,1027.42
2023-05-18T08:43:20.027Z,1027.42
2023-05-18T08:44:24.399Z,1027.42
2023-05-18T08:45:29.039Z,1027.40
2023-05-18T08:46:33.052Z,1027.40
2023-05-18T08:47:37.463Z,1027.40
2023-05-18T08:48:41.752Z,1027.38
2023-05-18T08:49:46.071Z,1027.40
2023-05-18T08:50:50.321Z,1027.39
2023-05-18T08:51:54.617Z,1027.39
2023-05-18T08:52:58.927Z,1027.38
2023-05-18T08:54:03.303Z,1027.37
2023-05-18T08:55:10.144Z,1027.36
2023-05-18T08:56:11.983Z,1027.32
2023-05-18T08:57:16.348Z,1027.33
2023-05-18T08:58:20.604Z,1027.34
2023-05-18T08:59:24.941Z,1027.33
2023-05-18T09:00:29.628Z,1027.33
2023-05-18T09:01:33.650Z,1027.36
2023-05-18T09:02:37.998Z,1027.39
2023-05-18T09:03:42.485Z,1027.38
2023-05-18T09:04:46.648Z,1027.36
2023-05-18T09:05:50.981Z,1027.39
2023-05-18T09:06:55.331Z,1027.39
2023-05-18T09:07:59.526Z,1027.39
2023-05-18T09:09:03.839Z,1027.38
2023-05-18T09:10:08.219Z,1027.36
2023-05-18T09:11:12.571Z,1027.35
2023-05-18T09:12:16.811Z,1027.37
2023-05-18T09:13:21.136Z,1027.37
2023-05-18T09:14:25.520Z,1027.39
2023-05-18T09:15:29.976Z,1027.39
2023-05-18T09:16:34.108Z,1027.40
2023-05-18T09:17:38.445Z,1027.40
2023-05-18T09:18:42.682Z,1027.43
2023-05-18T09:19:46.994Z,1027.44
2023-05-18T09:20:51.356Z,1027.41
2023-05-18T09:21:55.717Z,1027.37
2023-05-18T09:22:59.980Z,1027.37
2023-05-18T09:24:04.275Z,1027.34
2023-05-18T09:25:08.563Z,1027.35
2023-05-18T09:26:12.922Z,1027.36
2023-05-18T09:27:17.251Z,1027.38
2023-05-18T09:28:21.503Z,1027.37
2023-05-18T09:29:25.823Z,1027.37
2023-05-18T09:30:30.120Z,1027.38
2023-05-18T09:31:34.554Z,1027.37
2023-05-18T09:32:38.898Z,1027.37
2023-05-18T09:33:43.168Z,1027.34
2023-05-18T09:34:47.412Z,1027.34
2023-05-18T09:35:51.861Z,1027.33
2023-05-18T09:36:56.070Z,1027.31
2023-05-18T09:38:00.357Z,1027.34
2023-05-18T09:39:04.721Z,1027.34
2023-05-18T09:40:09.074Z,1027.32
2023-05-18T09:41:13.401Z,1027.32
2023-05-18T09:42:17.674Z,1027.32
2023-05-18T09:43:22.032Z,1027.32
2023-05-18T09:44:26.269Z,1027.33
2023-05-18T09:45:33.748Z,1027.35
2023-05-18T09:46:37.184Z,1027.35
2023-05-18T09:47:41.416Z,1027.35
2023-05-18T09:48:45.694Z,1027.34
2023-05-18T09:49:50.027Z,1027.34
2023-05-18T09:50:54.419Z,1027.36
2023-05-18T09:51:58.682Z,1027.37
2023-05-18T09:53:03.115Z,1027.38
2023-05-18T09:54:07.476Z,1027.36
2023-05-18T09:55:11.783Z,1027.40
2023-05-18T09:56:16.136Z,1027.40
2023-05-18T09:57:20.489Z,1027.39
2023-05-18T09:58:24.960Z,1027.37
2023-05-18T09:59:29.181Z,1027.35
2023-05-18T10:00:33.661Z,1027.36
2023-05-18T10:01:37.860Z,1027.34
2023-05-18T10:02:42.119Z,1027.32
2023-05-18T10:03:46.552Z,1027.34
2023-05-18T10:04:50.982Z,1027.35
2023-05-18T10:05:55.133Z,1027.36
2023-05-18T10:06:59.523Z,1027.35
2023-05-18T10:08:03.792Z,1027.36
2023-05-18T10:09:08.160Z,1027.33
2023-05-18T10:10:15.457Z,1027.29
2023-05-18T10:11:18.960Z,1027.28
2023-05-18T10:12:23.179Z,1027.27
2023-05-18T10:13:27.524Z,1027.25
2023-05-18T10:14:31.903Z,1027.19
2023-05-18T10:15:36.188Z,1027.17
2023-05-18T10:16:40.615Z,1027.09
2023-05-18T10:17:44.870Z,1027.09
2023-05-18T10:18:49.085Z,1027.09
2023-05-18T10:19:53.440Z,1027.11
2023-05-18T10:20:59.290Z,1027.09
2023-05-18T10:22:02.095Z,1027.11
2023-05-18T10:23:06.367Z,1027.12
2023-05-18T10:24:10.724Z,1027.07
2023-05-18T10:25:15.071Z,1027.08
2023-05-18T10:26:19.452Z,1027.08
2023-05-18T10:27:23.811Z,1027.07
2023-05-18T10:28:28.086Z,1027.07
2023-05-18T10:29:32.362Z,1027.10
2023-05-18T10:30:36.816Z,1027.09
2023-05-18T10:31:41.120Z,1027.08
2023-05-18T10:32:45.480Z,1027.07
2023-05-18T10:33:49.727Z,1027.09
2023-05-18T10:34:54.137Z,1027.10
2023-05-18T10:35:58.305Z,1027.09
2023-05-18T10:37:02.721Z,1027.12
2023-05-18T10:38:07.141Z,1027.14
2023-05-18T10:39:11.460Z,1027.13
2023-05-18T10:40:15.720Z,1027.12
2023-05-18T10:41:20.001Z,1027.14
2023-05-18T10:42:24.414Z,1027.17
2023-05-18T10:43:28.692Z,1027.16
2023-05-18T10:44:33.033Z,1027.18
2023-05-18T10:45:37.355Z,1027.17
2023-05-18T10:46:41.812Z,1027.16
2023-05-18T10:47:46.258Z,1027.14
2023-05-18T10:48:50.406Z,1027.10
2023-05-18T10:49:54.779Z,1027.10
2023-05-18T10:50:59.085Z,1027.09
2023-05-18T10:52:09.396Z,1027.03
2023-05-18T10:53:12.448Z,1026.98
2023-05-18T10:54:16.579Z,1026.97
2023-05-18T10:55:21.063Z,1027.01
2023-05-18T10:56:25.409Z,1027.01
2023-05-18T10:57:29.719Z,1027.03
2023-05-18T10:58:34.173Z,1027.01
2023-05-18T10:59:38.539Z,1027.03
2023-05-18T11:00:42.891Z,1026.99
2023-05-18T11:01:47.292Z,1026.97
2023-05-18T11:02:51.608Z,1026.98
2023-05-18T11:03:55.837Z,1026.98
2023-05-18T11:05:00.310Z,1027.00
2023-05-18T11:06:04.578Z,1027.01
2023-05-18T11:07:09.045Z,1027.01
2023-05-18T11:08:13.459Z,1026.98
2023-05-18T11:09:17.859Z,1026.92
2023-05-18T11:10:22.096Z,1026.90
2023-05-18T11:11:26.523Z,1026.90
2023-05-18T11:12:30.832Z,1026.87
2023-05-18T11:13:35.204Z,1026.85
2023-05-18T11:14:39.560Z,1026.85
2023-05-18T11:15:47.027Z,1026.86
2023-05-18T11:16:50.618Z,1026.85
2023-05-18T11:17:54.903Z,1026.82
2023-05-18T11:18:59.234Z,1026.79
2023-05-18T11:20:03.628Z,1026.80
2023-05-18T11:21:08.025Z,1026.82
2023-05-18T11:22:12.306Z,1026.81
2023-05-18T11:23:16.722Z,1026.78
2023-05-18T11:24:21.179Z,1026.83
2023-05-18T11:25:25.398Z,1026.84
2023-05-18T11:26:29.789Z,1026.85
2023-05-18T11:27:34.222Z,1026.88
2023-05-18T11:28:38.418Z,1026.90
2023-05-18T11:29:42.826Z,1026.90
2023-05-18T11:30:47.187Z,1026.90
2023-05-18T11:31:51.500Z,1026.94
2023-05-18T11:32:55.862Z,1026.91
2023-05-18T11:34:00.164Z,1026.94
2023-05-18T11:35:04.494Z,1026.95
2023-05-18T11:36:08.772Z,1026.94
2023-05-18T11:37:13.273Z,1026.96
2023-05-18T11:38:17.493Z,1026.93
2023-05-18T11:39:21.866Z,1026.95
2023-05-18T11:40:26.233Z,1026.95
2023-05-18T11:41:30.588Z,1026.96
2023-05-18T11:42:34.997Z,1026.90
2023-05-18T11:43:39.312Z,1026.88
2023-05-18T11:44:43.714Z,1026.87
2023-05-18T11:45:48.072Z,1026.80
2023-05-18T11:46:52.331Z,1026.81
2023-05-18T11:47:56.878Z,1026.77
2023-05-18T11:49:01.095Z,1026.77
2023-05-18T11:50:05.488Z,1026.73
2023-05-18T11:51:09.869Z,1026.68
2023-05-18T11:52:14.266Z,1026.65
2023-05-18T11:53:18.721Z,1026.64
2023-05-18T11:54:22.990Z,1026.63
2023-05-18T11:55:27.464Z,1026.60
2023-05-18T11:56:31.804Z,1026.61
2023-05-18T11:57:36.319Z,1026.63
2023-05-18T11:58:40.679Z,1026.59
2023-05-18T11:59:45.017Z,1026.52
2023-05-18T12:00:49.481Z,1026.47
2023-05-18T12:01:53.799Z,1026.39
2023-05-18T12:02:58.228Z,1026.38
2023-05-18T12:04:02.745Z,1026.41
2023-05-18T12:05:06.987Z,1026.38
2023-05-18T12:06:11.278Z,1026.39
2023-05-18T12:07:15.640Z,1026.37
2023-05-18T12:08:20.109Z,1026.44
2023-05-18T12:09:24.444Z,1026.45
2023-05-18T12:10:28.826Z,1026.45
2023-05-18T12:11:33.181Z,1026.39
2023-05-18T12:12:37.541Z,1026.35
2023-05-18T12:13:41.995Z,1026.36
2023-05-18T12:14:46.308Z,1026.36
2023-05-18T12:15:50.608Z,1026.34
2023-05-18T12:16:55.032Z,1026.30
2023-05-18T12:17:59.495Z,1026.26
2023-05-18T12:19:03.807Z,1026.25
2023-05-18T12:20:08.121Z,1026.24
2023-05-18T12:21:12.566Z,1026.22
2023-05-18T12:22:16.956Z,1026.24
2023-05-18T12:23:21.288Z,1026.28
2023-05-18T12:24:25.659Z,1026.26
2023-05-18T12:25:30.395Z,1026.19
2023-05-18T12:26:34.393Z,1026.22
2023-05-18T12:27:38.789Z,1026.23
2023-05-18T12:28:43.189Z,1026.13
2023-05-18T12:30:01.674Z,1026.13
2023-05-18T12:31:05.120Z,1026.18
2023-05-18T12:32:09.434Z,1026.15
2023-05-18T12:33:13.807Z,1026.13
2023-05-18T12:34:18.180Z,1026.11
2023-05-18T12:35:22.530Z,1026.10
2023-05-18T12:36:26.906Z,1026.04
2023-05-18T12:37:44.133Z,1026.06
2023-05-18T12:38:35.634Z,1026.12
2023-05-18T12:39:40.088Z,1026.11
2023-05-18T12:40:58.433Z,1026.10
2023-05-18T12:42:01.643Z,1026.12
2023-05-18T12:43:05.938Z,1026.12
2023-05-18T12:44:10.426Z,1026.08
2023-05-18T12:45:14.712Z,1026.09
2023-05-18T12:46:19.229Z,1026.08
2023-05-18T12:47:23.644Z,1026.04
2023-05-18T12:48:27.916Z,1025.99
2023-05-18T12:49:32.349Z,1025.95
2023-05-18T12:50:36.667Z,1025.92
2023-05-18T12:51:41.194Z,1025.90
2023-05-18T12:52:45.472Z,1025.89
2023-05-18T12:53:49.920Z,1025.92
2023-05-18T12:54:54.260Z,1025.96
2023-05-18T12:55:58.613Z,1025.97
2023-05-18T12:57:03.085Z,1026.00
2023-05-18T12:58:07.474Z,1026.01
2023-05-18T12:59:11.759Z,1026.01